Terminal Aerodrome Forecast
Issued by NWS

Home | Current Version | Previous Version | Text Only | Print | Product List | Glossary On
Versions: 1 2 3 4 5 6 7 8 9 10 11 12 13 14 15 16 17 18 19 20 21 22 23 24
000
FTUS46 KSEW 201121
TAFPAE
TAF
KPAE 201121Z 2012/2112 08006KT P6SM BKN029 OVC035
     FM201600 05005KT P6SM -RA OVC025
     FM201900 02005KT 4SM -RA BR OVC015
     FM202300 31005KT 4SM -RA BR OVC015
     FM210200 VRB04KT P6SM -SHRA BKN025 OVC040
     FM210500 VRB04KT P6SM SCT025 OVC040=

USA.gov is the U.S. government's official web portal to all federal, state and local government web resources and services.